Time;durP1;ratioP1;P1;durP2;ratioP2;P2;SDS_P1;SDS_P2;PMS_P1;PMS_P2;Temp;Humidity;BMP_temperature;BMP_pressure;BME280_temperature;BME280_humidity;BME280_pressure;Samples;Min_cycle;Max_cycle;Signal;HPM_P1;HPM_P2
2023/02/01 00:01:56;;;;;;;8.63;5.73;;;;;;;;;;5038541;28;20187;-83
2023/02/01 00:04:23;;;;;;;12.47;6.70;;;;;;;;;;5020110;28;20876;-83
2023/02/01 00:06:49;;;;;;;15.48;7.43;;;;;;;;;;5021134;28;20849;-83
2023/02/01 00:09:15;;;;;;;14.45;7.22;;;;;;;;;;5031607;28;20223;-82
2023/02/01 00:11:41;;;;;;;8.20;4.00;;;;;;;;;;5023253;28;20180;-82
2023/02/01 00:14:08;;;;;;;12.30;6.40;;;;;;;;;;5029913;28;20457;-83
2023/02/01 00:16:34;;;;;;;8.85;6.13;;;;;;;;;;5030978;28;20511;-83
2023/02/01 00:19:04;;;;;;;14.85;6.47;;;;;;;;;;5030224;28;20226;-84
2023/02/01 00:21:31;;;;;;;13.13;6.87;;;;;;;;;;5040660;28;20610;-84
2023/02/01 00:23:57;;;;;;;9.27;5.00;;;;;;;;;;5051065;28;20476;-84
2023/02/01 00:26:22;;;;;;;18.13;5.57;;;;;;;;;;5048172;28;20187;-85
2023/02/01 00:28:48;;;;;;;8.50;4.50;;;;;;;;;;5038436;28;20526;-84
2023/02/01 00:31:15;;;;;;;12.17;4.73;;;;;;;;;;5024883;28;20467;-84
2023/02/01 00:33:41;;;;;;;11.20;5.95;;;;;;;;;;5043981;28;20454;-85
2023/02/01 00:36:08;;;;;;;8.60;5.20;;;;;;;;;;5031451;28;20423;-84
2023/02/01 00:38:36;;;;;;;7.30;4.67;;;;;;;;;;5036642;28;20901;-84
2023/02/01 00:41:05;;;;;;;11.07;4.23;;;;;;;;;;5029056;28;20510;-84
2023/02/01 00:43:34;;;;;;;11.55;3.83;;;;;;;;;;5029165;28;20442;-83
2023/02/01 00:46:01;;;;;;;9.63;6.00;;;;;;;;;;5045742;28;20191;-84
2023/02/01 00:48:27;;;;;;;12.38;4.78;;;;;;;;;;5030638;28;20659;-84
2023/02/01 00:50:53;;;;;;;15.73;5.80;;;;;;;;;;5048312;28;20219;-85
2023/02/01 00:53:19;;;;;;;10.03;4.93;;;;;;;;;;5032176;28;20582;-85
2023/02/01 00:55:46;;;;;;;16.80;5.30;;;;;;;;;;5031932;28;20437;-84
2023/02/01 00:58:12;;;;;;;8.43;5.20;;;;;;;;;;5042267;28;20278;-85
2023/02/01 01:00:38;;;;;;;11.17;5.03;;;;;;;;;;5034773;28;20196;-85
2023/02/01 01:03:17;;;;;;;13.80;5.60;;;;;;;;;;5037377;28;20514;-85
2023/02/01 01:05:44;;;;;;;5.45;3.95;;;;;;;;;;5035683;28;20172;-84
2023/02/01 01:08:10;;;;;;;9.07;6.00;;;;;;;;;;5031193;28;20200;-84
2023/02/01 01:10:36;;;;;;;14.67;7.47;;;;;;;;;;5028695;28;20285;-84
2023/02/01 01:13:02;;;;;;;8.10;7.00;;;;;;;;;;5026965;28;20436;-83
2023/02/01 01:15:28;;;;;;;10.63;9.17;;;;;;;;;;5026317;28;20433;-84
2023/02/01 01:17:54;;;;;;;11.70;7.40;;;;;;;;;;5032609;28;20913;-84
2023/02/01 01:20:21;;;;;;;13.27;7.73;;;;;;;;;;5017402;28;20212;-83
2023/02/01 01:22:47;;;;;;;13.40;7.53;;;;;;;;;;5017548;28;20420;-84
2023/02/01 01:25:13;;;;;;;11.00;7.45;;;;;;;;;;5022284;28;20212;-84
2023/02/01 01:27:39;;;;;;;11.68;7.82;;;;;;;;;;5030487;28;20192;-82
2023/02/01 01:30:07;;;;;;;11.50;6.17;;;;;;;;;;5024635;28;20340;-83
2023/02/01 01:32:33;;;;;;;9.93;6.45;;;;;;;;;;5037591;28;20500;-82
2023/02/01 01:34:59;;;;;;;16.48;9.43;;;;;;;;;;5023670;28;20219;-83
2023/02/01 01:37:25;;;;;;;12.50;7.07;;;;;;;;;;5027623;28;20215;-83
2023/02/01 01:39:51;;;;;;;16.43;8.20;;;;;;;;;;5021015;28;20439;-83
2023/02/01 01:42:17;;;;;;;14.98;8.52;;;;;;;;;;5032859;28;20445;-83
2023/02/01 01:44:55;;;;;;;17.37;8.97;;;;;;;;;;5024915;28;20193;-84
2023/02/01 01:47:21;;;;;;;13.70;7.22;;;;;;;;;;5027107;28;20539;-84
2023/02/01 01:49:47;;;;;;;14.50;7.77;;;;;;;;;;5034940;28;20295;-84
2023/02/01 01:52:13;;;;;;;16.53;6.67;;;;;;;;;;5055862;28;20422;-84
2023/02/01 01:54:41;;;;;;;11.82;5.95;;;;;;;;;;5043210;28;20908;-83
2023/02/01 01:57:09;;;;;;;8.20;6.25;;;;;;;;;;5061414;28;20222;-84
2023/02/01 01:59:37;;;;;;;8.48;7.40;;;;;;;;;;5029036;28;20314;-84
2023/02/01 02:02:03;;;;;;;13.80;7.10;;;;;;;;;;5034950;28;20567;-84
2023/02/01 02:04:29;;;;;;;13.65;5.85;;;;;;;;;;5014571;28;20466;-84
2023/02/01 02:06:56;;;;;;;7.22;5.50;;;;;;;;;;5031498;28;20343;-84
2023/02/01 02:09:23;;;;;;;10.55;4.85;;;;;;;;;;5040833;28;20262;-83
2023/02/01 02:11:49;;;;;;;14.05;6.45;;;;;;;;;;5025028;28;20203;-84
2023/02/01 02:14:16;;;;;;;16.33;5.57;;;;;;;;;;5037870;28;20386;-83
2023/02/01 02:16:55;;;;;;;5.55;4.72;;;;;;;;;;5023419;28;20443;-83
2023/02/01 02:19:21;;;;;;;8.38;6.13;;;;;;;;;;5051564;28;20195;-83
2023/02/01 02:21:47;;;;;;;23.03;5.10;;;;;;;;;;5055189;28;20313;-83
2023/02/01 02:24:18;;;;;;;6.47;4.93;;;;;;;;;;5040548;28;20527;-83
2023/02/01 02:26:44;;;;;;;9.75;4.50;;;;;;;;;;5036955;28;20430;-83
2023/02/01 02:29:19;;;;;;;8.93;4.40;;;;;;;;;;5030344;28;20207;-84
2023/02/01 02:37:19;;;;;;;13.07;4.00;;;;;;;;;;4960221;28;20477;-75
2023/02/01 02:39:51;;;;;;;11.45;4.40;;;;;;;;;;4963315;28;20221;-75
2023/02/01 02:47:57;;;;;;;6.65;2.95;;;;;;;;;;4979102;28;20728;-75
2023/02/01 03:04:29;;;;;;;5.90;1.27;;;;;;;;;;4977100;28;20212;-74
2023/02/01 03:06:55;;;;;;;6.55;3.50;;;;;;;;;;4990016;28;20314;-75
2023/02/01 03:09:31;;;;;;;13.60;3.17;;;;;;;;;;4980925;28;20246;-75
2023/02/01 03:14:46;;;;;;;10.93;4.20;;;;;;;;;;4990381;28;20199;-75
2023/02/01 03:17:16;;;;;;;11.05;3.50;;;;;;;;;;4981735;28;20197;-75
2023/02/01 03:19:49;;;;;;;7.23;2.73;;;;;;;;;;4982676;28;20212;-75
2023/02/01 03:22:21;;;;;;;10.30;3.95;;;;;;;;;;4967886;28;20443;-76
2023/02/01 03:24:48;;;;;;;7.10;3.07;;;;;;;;;;4956531;28;20597;-76
2023/02/01 03:27:26;;;;;;;7.80;2.88;;;;;;;;;;4988364;28;20524;-74
2023/02/01 03:29:56;;;;;;;9.88;4.20;;;;;;;;;;4987356;28;20213;-74
2023/02/01 03:32:22;;;;;;;5.15;4.05;;;;;;;;;;4995332;28;20201;-74
2023/02/01 03:34:49;;;;;;;9.30;3.25;;;;;;;;;;4983498;28;20236;-75
2023/02/01 03:37:19;;;;;;;3.40;2.97;;;;;;;;;;4953499;28;20656;-75
2023/02/01 03:39:45;;;;;;;9.77;3.88;;;;;;;;;;4979799;28;20228;-75
2023/02/01 03:42:15;;;;;;;13.23;3.57;;;;;;;;;;4992367;28;20607;-75
2023/02/01 03:44:53;;;;;;;9.10;3.10;;;;;;;;;;4987629;28;20444;-74
2023/02/01 03:47:32;;;;;;;12.90;3.67;;;;;;;;;;4989424;28;20513;-75
2023/02/01 03:50:04;;;;;;;4.63;2.70;;;;;;;;;;4954081;28;20244;-74
2023/02/01 03:52:41;;;;;;;10.75;3.53;;;;;;;;;;4975334;28;20192;-76
2023/02/01 03:55:07;;;;;;;6.68;2.90;;;;;;;;;;4978491;28;20301;-75
2023/02/01 03:57:36;;;;;;;8.70;3.80;;;;;;;;;;4989644;28;20191;-75
2023/02/01 04:00:07;;;;;;;7.38;4.05;;;;;;;;;;4978211;28;20926;-76
2023/02/01 04:02:34;;;;;;;12.63;3.83;;;;;;;;;;4973118;28;20396;-76
2023/02/01 04:05:00;;;;;;;8.33;4.13;;;;;;;;;;4961231;28;20173;-74
2023/02/01 04:07:26;;;;;;;11.07;3.95;;;;;;;;;;4976393;28;20512;-74
2023/02/01 04:09:52;;;;;;;9.80;3.30;;;;;;;;;;4961573;28;20351;-76
2023/02/01 04:12:18;;;;;;;5.57;4.30;;;;;;;;;;4986996;28;20447;-76
2023/02/01 04:14:44;;;;;;;14.07;4.50;;;;;;;;;;4984313;28;20435;-74
2023/02/01 04:17:10;;;;;;;7.33;3.80;;;;;;;;;;4974932;28;20185;-74
2023/02/01 04:19:36;;;;;;;13.20;5.30;;;;;;;;;;4989646;28;20788;-75
2023/02/01 04:22:02;;;;;;;13.50;6.13;;;;;;;;;;4979501;28;20836;-76
2023/02/01 04:24:28;;;;;;;13.27;2.77;;;;;;;;;;4988174;28;20467;-76
2023/02/01 04:26:54;;;;;;;11.73;5.47;;;;;;;;;;4970361;28;20441;-77
2023/02/01 04:29:20;;;;;;;13.23;4.57;;;;;;;;;;4990475;28;20891;-74
2023/02/01 04:31:46;;;;;;;19.13;4.40;;;;;;;;;;4977470;28;20516;-76
2023/02/01 04:34:12;;;;;;;13.13;3.75;;;;;;;;;;4992764;28;21041;-75
2023/02/01 04:36:38;;;;;;;14.03;4.33;;;;;;;;;;4977116;28;20188;-75
2023/02/01 04:39:04;;;;;;;10.93;4.53;;;;;;;;;;4999974;28;20455;-76
2023/02/01 04:41:30;;;;;;;7.40;3.57;;;;;;;;;;4975278;28;20465;-76
2023/02/01 04:43:56;;;;;;;21.90;4.47;;;;;;;;;;4978175;28;20479;-75
2023/02/01 04:46:22;;;;;;;20.10;5.13;;;;;;;;;;4991419;28;20432;-76
2023/02/01 04:48:48;;;;;;;7.20;3.73;;;;;;;;;;5000178;28;20473;-76
2023/02/01 04:51:14;;;;;;;10.17;4.57;;;;;;;;;;4956034;28;20872;-77
2023/02/01 04:53:41;;;;;;;17.75;3.55;;;;;;;;;;4991210;28;20564;-76
2023/02/01 04:56:07;;;;;;;8.43;3.58;;;;;;;;;;4982615;28;20177;-75
2023/02/01 04:58:33;;;;;;;12.07;3.75;;;;;;;;;;4982967;28;20185;-75
2023/02/01 05:01:02;;;;;;;8.47;4.00;;;;;;;;;;4980483;28;20525;-75
2023/02/01 05:03:28;;;;;;;7.82;3.10;;;;;;;;;;4984524;28;20803;-77
2023/02/01 05:05:54;;;;;;;6.57;4.23;;;;;;;;;;4964206;28;20198;-76
2023/02/01 05:08:22;;;;;;;6.23;3.40;;;;;;;;;;4994412;28;20432;-75
2023/02/01 05:10:48;;;;;;;9.47;4.40;;;;;;;;;;4998008;28;20500;-75
2023/02/01 05:15:58;;;;;;;21.43;4.43;;;;;;;;;;4986093;28;20420;-75
2023/02/01 05:18:24;;;;;;;5.13;3.97;;;;;;;;;;4983956;28;20797;-76
2023/02/01 05:20:50;;;;;;;17.37;4.73;;;;;;;;;;4980333;28;20441;-75
2023/02/01 05:23:16;;;;;;;7.97;4.03;;;;;;;;;;4982629;28;20933;-76
2023/02/01 05:25:42;;;;;;;10.23;3.87;;;;;;;;;;4973658;28;20432;-75
2023/02/01 05:28:08;;;;;;;14.43;5.67;;;;;;;;;;4981547;28;20433;-76
2023/02/01 05:30:35;;;;;;;12.63;3.83;;;;;;;;;;4982848;28;20519;-75
2023/02/01 05:33:01;;;;;;;16.02;4.07;;;;;;;;;;4978527;28;20436;-75
2023/02/01 05:35:27;;;;;;;16.20;4.27;;;;;;;;;;4981227;28;20205;-76
2023/02/01 05:37:53;;;;;;;12.88;3.65;;;;;;;;;;4988719;28;20484;-76
2023/02/01 05:40:19;;;;;;;15.30;5.00;;;;;;;;;;4993170;28;20651;-75
2023/02/01 05:42:45;;;;;;;13.17;5.43;;;;;;;;;;4970439;28;20425;-76
2023/02/01 05:45:11;;;;;;;8.73;4.13;;;;;;;;;;4989272;28;20638;-76
2023/02/01 05:47:37;;;;;;;9.03;3.53;;;;;;;;;;4983992;28;20504;-74
2023/02/01 05:50:04;;;;;;;9.95;4.30;;;;;;;;;;4988477;28;21087;-75
2023/02/01 05:52:30;;;;;;;14.30;4.85;;;;;;;;;;4976044;28;20185;-75
2023/02/01 05:54:56;;;;;;;6.07;3.10;;;;;;;;;;5000879;28;20231;-76
2023/02/01 05:57:22;;;;;;;8.33;3.57;;;;;;;;;;4990638;28;20778;-76
2023/02/01 05:59:48;;;;;;;12.90;4.50;;;;;;;;;;4983006;28;20778;-76
2023/02/01 06:02:15;;;;;;;15.40;4.27;;;;;;;;;;4984870;28;20426;-75
2023/02/01 06:04:41;;;;;;;8.00;3.92;;;;;;;;;;4977573;28;20944;-76
2023/02/01 06:07:08;;;;;;;13.40;3.50;;;;;;;;;;4987082;28;20280;-75
2023/02/01 06:09:35;;;;;;;18.25;4.93;;;;;;;;;;4995507;28;20468;-76
2023/02/01 06:12:01;;;;;;;13.43;4.30;;;;;;;;;;4987343;28;20694;-76
2023/02/01 06:14:27;;;;;;;11.97;3.67;;;;;;;;;;4985328;28;20597;-75
2023/02/01 06:16:54;;;;;;;6.85;3.00;;;;;;;;;;4985099;28;20440;-76
2023/02/01 06:19:20;;;;;;;14.73;4.95;;;;;;;;;;4983134;28;20193;-76
2023/02/01 06:21:46;;;;;;;18.40;3.07;;;;;;;;;;4973234;28;20193;-76
2023/02/01 06:24:12;;;;;;;4.07;2.92;;;;;;;;;;4985151;28;20444;-75
2023/02/01 06:26:39;;;;;;;13.93;4.57;;;;;;;;;;4994975;28;20556;-76
2023/02/01 06:29:06;;;;;;;7.20;3.33;;;;;;;;;;4981680;28;20339;-75
2023/02/01 06:31:32;;;;;;;12.98;4.30;;;;;;;;;;4981383;28;20209;-77
2023/02/01 06:33:58;;;;;;;8.45;3.80;;;;;;;;;;4998718;28;20687;-75
2023/02/01 06:36:24;;;;;;;7.60;4.40;;;;;;;;;;4986949;28;20185;-76
2023/02/01 06:38:50;;;;;;;10.43;3.83;;;;;;;;;;4993830;28;21000;-76
2023/02/01 06:41:16;;;;;;;12.43;3.27;;;;;;;;;;4988937;28;20753;-76
2023/02/01 06:43:43;;;;;;;10.30;5.43;;;;;;;;;;4969764;28;20832;-76
2023/02/01 06:46:11;;;;;;;13.60;3.63;;;;;;;;;;4987474;28;20431;-75
2023/02/01 06:48:37;;;;;;;11.30;4.00;;;;;;;;;;4986776;28;20457;-76
2023/02/01 06:51:04;;;;;;;7.30;4.10;;;;;;;;;;4980784;28;20982;-75
2023/02/01 06:53:30;;;;;;;7.40;2.87;;;;;;;;;;4975797;28;20452;-77
2023/02/01 06:55:57;;;;;;;16.33;4.33;;;;;;;;;;4977785;28;20460;-76
2023/02/01 06:58:23;;;;;;;10.60;3.50;;;;;;;;;;4981945;28;20783;-76
2023/02/01 07:00:50;;;;;;;20.83;4.65;;;;;;;;;;4979991;28;20573;-76
2023/02/01 07:03:16;;;;;;;12.43;4.57;;;;;;;;;;4984103;28;20692;-76
2023/02/01 07:05:42;;;;;;;11.32;3.13;;;;;;;;;;4968704;28;20413;-76
2023/02/01 07:08:08;;;;;;;23.43;4.47;;;;;;;;;;4976448;28;20200;-77
2023/02/01 07:10:34;;;;;;;2.10;1.53;;;;;;;;;;4976456;28;20593;-75
2023/02/01 07:13:00;;;;;;;11.73;3.97;;;;;;;;;;4977544;28;20464;-77
2023/02/01 07:15:26;;;;;;;11.57;5.07;;;;;;;;;;4976859;28;20182;-77
2023/02/01 07:17:55;;;;;;;10.70;3.90;;;;;;;;;;4961752;28;20445;-75
2023/02/01 07:20:21;;;;;;;24.03;4.43;;;;;;;;;;4977098;28;20409;-78
2023/02/01 07:22:47;;;;;;;18.08;5.10;;;;;;;;;;4988763;28;20440;-77
2023/02/01 07:25:13;;;;;;;9.97;3.77;;;;;;;;;;4994155;28;20185;-75
2023/02/01 07:27:39;;;;;;;6.03;4.23;;;;;;;;;;4987179;28;20937;-75
2023/02/01 07:30:05;;;;;;;15.25;4.57;;;;;;;;;;4987757;28;20467;-76
2023/02/01 07:32:31;;;;;;;14.25;4.32;;;;;;;;;;4978380;28;20352;-78
2023/02/01 07:34:58;;;;;;;8.67;3.97;;;;;;;;;;4984684;28;20264;-77
2023/02/01 07:37:27;;;;;;;16.00;5.50;;;;;;;;;;4979871;28;20433;-77
2023/02/01 07:39:53;;;;;;;11.02;4.57;;;;;;;;;;4977078;28;20474;-77
2023/02/01 07:42:19;;;;;;;18.53;6.27;;;;;;;;;;4977331;28;20185;-76
2023/02/01 07:44:45;;;;;;;9.90;4.23;;;;;;;;;;4989761;28;20800;-77
2023/02/01 07:47:11;;;;;;;11.10;4.15;;;;;;;;;;4980797;28;20416;-76
2023/02/01 07:49:37;;;;;;;21.77;4.80;;;;;;;;;;4989007;28;20208;-76
2023/02/01 07:52:03;;;;;;;14.77;3.90;;;;;;;;;;4987860;28;20432;-75
2023/02/01 07:54:29;;;;;;;10.60;4.80;;;;;;;;;;4982142;28;20439;-75
2023/02/01 07:56:55;;;;;;;7.70;2.83;;;;;;;;;;4988805;28;20436;-75
2023/02/01 07:59:21;;;;;;;11.37;4.10;;;;;;;;;;4989999;28;20448;-75
2023/02/01 08:01:47;;;;;;;11.00;4.50;;;;;;;;;;5000204;28;20467;-76
2023/02/01 08:04:13;;;;;;;21.97;4.13;;;;;;;;;;4977323;28;20441;-75
2023/02/01 08:06:40;;;;;;;14.67;3.47;;;;;;;;;;4981652;28;20936;-76
2023/02/01 08:09:11;;;;;;;10.57;4.03;;;;;;;;;;4979448;28;20444;-76
2023/02/01 08:11:37;;;;;;;8.85;3.55;;;;;;;;;;4968974;28;20558;-75
2023/02/01 08:14:04;;;;;;;9.70;3.60;;;;;;;;;;4983619;28;20495;-77
2023/02/01 08:16:30;;;;;;;8.27;4.00;;;;;;;;;;4991552;28;20413;-76
2023/02/01 08:18:56;;;;;;;15.53;5.27;;;;;;;;;;4991554;28;20436;-76
2023/02/01 08:21:23;;;;;;;8.13;3.70;;;;;;;;;;4966085;28;20507;-75
2023/02/01 08:23:49;;;;;;;14.60;5.20;;;;;;;;;;4989885;28;20444;-76
2023/02/01 08:26:18;;;;;;;12.15;2.65;;;;;;;;;;4979533;28;20437;-75
2023/02/01 08:28:47;;;;;;;12.70;4.97;;;;;;;;;;4961838;28;20194;-75
2023/02/01 08:31:14;;;;;;;17.90;4.53;;;;;;;;;;4983905;28;20680;-76
2023/02/01 08:33:41;;;;;;;11.35;4.90;;;;;;;;;;4994181;28;20490;-77
2023/02/01 08:36:08;;;;;;;12.93;3.67;;;;;;;;;;4977947;28;20196;-75
2023/02/01 08:38:38;;;;;;;16.93;5.63;;;;;;;;;;4989012;28;20472;-76
2023/02/01 08:41:11;;;;;;;13.83;4.30;;;;;;;;;;4982583;28;20430;-75
2023/02/01 08:43:37;;;;;;;3.27;1.97;;;;;;;;;;4987445;28;20540;-76
2023/02/01 08:46:04;;;;;;;9.90;5.23;;;;;;;;;;4982018;28;20460;-75
2023/02/01 08:48:30;;;;;;;16.63;5.80;;;;;;;;;;4992231;28;20444;-76
2023/02/01 08:50:56;;;;;;;13.93;4.83;;;;;;;;;;4980430;28;20807;-76
2023/02/01 08:53:23;;;;;;;8.90;4.70;;;;;;;;;;4990789;28;20928;-75
2023/02/01 08:55:49;;;;;;;17.23;5.97;;;;;;;;;;5006882;28;20434;-75
2023/02/01 08:58:16;;;;;;;19.33;5.63;;;;;;;;;;4988750;28;20942;-77
2023/02/01 09:00:44;;;;;;;20.93;6.17;;;;;;;;;;4975362;28;20452;-77
2023/02/01 09:03:10;;;;;;;15.18;5.60;;;;;;;;;;4996761;28;20453;-77
2023/02/01 09:05:36;;;;;;;11.32;4.30;;;;;;;;;;4979303;28;20677;-77
2023/02/01 09:08:02;;;;;;;13.57;4.97;;;;;;;;;;4994976;28;20262;-78
2023/02/01 09:10:28;;;;;;;15.63;6.20;;;;;;;;;;4971919;28;20464;-76
2023/02/01 09:12:54;;;;;;;13.50;4.33;;;;;;;;;;4991333;28;20444;-77
2023/02/01 09:15:20;;;;;;;8.47;3.33;;;;;;;;;;4989602;28;20440;-78
2023/02/01 09:17:46;;;;;;;10.20;3.47;;;;;;;;;;4982744;28;20848;-76
2023/02/01 09:20:12;;;;;;;11.93;4.27;;;;;;;;;;4987340;28;20852;-79
2023/02/01 09:22:39;;;;;;;8.37;4.97;;;;;;;;;;4986812;28;20444;-77
2023/02/01 09:25:05;;;;;;;24.97;6.17;;;;;;;;;;4988223;28;20814;-77
2023/02/01 09:27:31;;;;;;;15.60;5.47;;;;;;;;;;4988863;28;20684;-77
2023/02/01 09:29:57;;;;;;;19.13;5.33;;;;;;;;;;4987020;28;21029;-77
2023/02/01 09:32:24;;;;;;;14.10;3.37;;;;;;;;;;4984407;28;20445;-76
2023/02/01 09:34:50;;;;;;;22.40;5.83;;;;;;;;;;4982788;28;20471;-78
2023/02/01 09:37:16;;;;;;;9.07;3.70;;;;;;;;;;4989013;28;20682;-78
2023/02/01 09:39:45;;;;;;;14.35;4.60;;;;;;;;;;4974172;28;20469;-76
2023/02/01 09:42:16;;;;;;;16.27;5.27;;;;;;;;;;4988766;28;20775;-76
2023/02/01 09:44:54;;;;;;;20.30;5.07;;;;;;;;;;4979684;28;20415;-77
2023/02/01 09:47:22;;;;;;;11.57;5.22;;;;;;;;;;4977332;28;20436;-80
2023/02/01 09:50:10;;;;;;;14.17;5.90;;;;;;;;;;4959629;28;20288;-79
2023/02/01 09:52:44;;;;;;;22.17;6.43;;;;;;;;;;4993246;28;20444;-78
2023/02/01 09:55:13;;;;;;;8.27;4.18;;;;;;;;;;4999903;28;20663;-76
2023/02/01 09:58:03;;;;;;;14.53;5.77;;;;;;;;;;4987362;28;20193;-78
2023/02/01 10:00:36;;;;;;;10.93;4.10;;;;;;;;;;4974771;28;20733;-77
2023/02/01 10:03:02;;;;;;;22.45;5.30;;;;;;;;;;4986481;28;20440;-77
2023/02/01 10:05:45;;;;;;;10.77;4.00;;;;;;;;;;4985238;28;20186;-76
2023/02/01 10:08:18;;;;;;;14.93;3.77;;;;;;;;;;4975822;28;20928;-76
2023/02/01 10:10:48;;;;;;;12.57;4.83;;;;;;;;;;4973784;28;20804;-77
2023/02/01 10:13:39;;;;;;;10.43;5.30;;;;;;;;;;4993240;28;20440;-76
2023/02/01 10:16:13;;;;;;;9.93;4.33;;;;;;;;;;4971349;28;20429;-76
2023/02/01 10:18:49;;;;;;;12.20;3.33;;;;;;;;;;4976320;28;20771;-75
2023/02/01 10:21:24;;;;;;;25.33;3.87;;;;;;;;;;4982727;28;20552;-75
2023/02/01 10:24:08;;;;;;;4.53;2.88;;;;;;;;;;4979655;28;20539;-76
2023/02/01 10:26:37;;;;;;;12.07;4.50;;;;;;;;;;4994111;28;20189;-75
2023/02/01 10:29:04;;;;;;;11.83;4.53;;;;;;;;;;4966732;28;21204;-74
2023/02/01 10:31:32;;;;;;;12.23;4.55;;;;;;;;;;5007001;28;20533;-75
2023/02/01 10:34:00;;;;;;;6.60;4.57;;;;;;;;;;4991490;28;20271;-76
2023/02/01 10:36:30;;;;;;;8.00;4.20;;;;;;;;;;4986470;28;20516;-76
2023/02/01 10:38:57;;;;;;;11.75;4.55;;;;;;;;;;4990398;28;20534;-75
2023/02/01 10:41:24;;;;;;;8.77;3.37;;;;;;;;;;4982609;28;20201;-75
2023/02/01 10:43:55;;;;;;;6.37;3.37;;;;;;;;;;4960735;28;20449;-77
2023/02/01 10:46:23;;;;;;;9.55;4.53;;;;;;;;;;4988096;28;20521;-77
2023/02/01 10:48:51;;;;;;;9.52;4.00;;;;;;;;;;4979885;28;20276;-77
2023/02/01 10:51:21;;;;;;;9.03;3.50;;;;;;;;;;4974184;28;20286;-75
2023/02/01 10:53:56;;;;;;;13.02;4.90;;;;;;;;;;4982350;28;20466;-77
2023/02/01 10:56:26;;;;;;;7.23;4.17;;;;;;;;;;4997145;28;20714;-77
2023/02/01 10:59:00;;;;;;;11.20;4.53;;;;;;;;;;4967708;28;20915;-77
2023/02/01 11:01:31;;;;;;;25.80;4.90;;;;;;;;;;4957143;28;20433;-75
2023/02/01 11:04:01;;;;;;;10.80;3.35;;;;;;;;;;4978188;28;20444;-75
2023/02/01 11:06:30;;;;;;;10.37;4.90;;;;;;;;;;4990286;28;20224;-75
2023/02/01 11:09:06;;;;;;;11.63;4.80;;;;;;;;;;4982639;28;20444;-76
2023/02/01 11:11:32;;;;;;;9.50;4.27;;;;;;;;;;4978020;28;20501;-76
2023/02/01 11:13:58;;;;;;;9.30;4.50;;;;;;;;;;4990528;28;20510;-76
2023/02/01 11:16:29;;;;;;;21.90;5.70;;;;;;;;;;4983306;28;20780;-77
2023/02/01 11:18:55;;;;;;;7.00;4.20;;;;;;;;;;4968974;28;20505;-76
2023/02/01 11:21:22;;;;;;;8.10;4.10;;;;;;;;;;4981054;28;20474;-76
2023/02/01 11:23:48;;;;;;;9.53;4.03;;;;;;;;;;4987215;28;20457;-77
2023/02/01 11:26:20;;;;;;;11.23;4.03;;;;;;;;;;4986436;28;20503;-77
2023/02/01 11:28:52;;;;;;;5.30;3.80;;;;;;;;;;4979272;28;20416;-76
2023/02/01 11:31:18;;;;;;;8.40;4.13;;;;;;;;;;4968892;28;21082;-76
2023/02/01 11:34:05;;;;;;;10.63;4.47;;;;;;;;;;4982076;28;20991;-76
2023/02/01 11:36:32;;;;;;;12.77;4.93;;;;;;;;;;4982501;28;20491;-77
2023/02/01 11:39:10;;;;;;;10.10;4.77;;;;;;;;;;4974623;28;20465;-78
2023/02/01 11:41:41;;;;;;;7.17;3.60;;;;;;;;;;4974080;28;20440;-76
2023/02/01 11:44:19;;;;;;;18.53;3.57;;;;;;;;;;4975994;28;20483;-75
2023/02/01 11:46:45;;;;;;;6.97;4.13;;;;;;;;;;4967209;28;20428;-77
2023/02/01 11:52:18;;;;;;;13.63;4.03;;;;;;;;;;4977695;28;20973;-75
2023/02/01 11:54:50;;;;;;;9.30;4.90;;;;;;;;;;4970188;28;20911;-75
2023/02/01 11:57:28;;;;;;;4.30;3.97;;;;;;;;;;4974300;28;20815;-75
2023/02/01 12:00:08;;;;;;;15.00;3.73;;;;;;;;;;4978539;28;20519;-77
2023/02/01 12:02:34;;;;;;;7.57;4.10;;;;;;;;;;4980525;28;20490;-76
2023/02/01 12:05:15;;;;;;;4.33;3.10;;;;;;;;;;4985895;28;20505;-77
2023/02/01 12:07:50;;;;;;;7.13;4.43;;;;;;;;;;4985446;28;20483;-75
2023/02/01 12:10:16;;;;;;;12.47;5.57;;;;;;;;;;4974887;28;20776;-76
2023/02/01 12:12:53;;;;;;;8.70;4.30;;;;;;;;;;4976352;28;20440;-75
2023/02/01 12:15:41;;;;;;;14.63;5.00;;;;;;;;;;4985399;28;20447;-75
2023/02/01 12:18:22;;;;;;;7.80;4.72;;;;;;;;;;4976950;28;20437;-75
2023/02/01 12:20:51;;;;;;;13.33;5.80;;;;;;;;;;4974625;28;20943;-76
2023/02/01 12:23:32;;;;;;;6.80;4.40;;;;;;;;;;4974604;28;20468;-77
2023/02/01 12:26:14;;;;;;;15.13;3.77;;;;;;;;;;4977783;28;20428;-75
2023/02/01 12:28:40;;;;;;;10.63;4.37;;;;;;;;;;4986223;28;20573;-77
2023/02/01 12:31:23;;;;;;;7.83;4.23;;;;;;;;;;4993052;28;20872;-77
2023/02/01 12:33:52;;;;;;;6.80;3.93;;;;;;;;;;4968322;28;20439;-75
2023/02/01 12:36:18;;;;;;;12.70;5.13;;;;;;;;;;4985638;28;20483;-76
2023/02/01 12:38:51;;;;;;;13.33;5.00;;;;;;;;;;4975840;28;20554;-76
2023/02/01 12:41:36;;;;;;;13.77;5.37;;;;;;;;;;4972643;28;21007;-77
2023/02/01 12:44:17;;;;;;;3.60;2.43;;;;;;;;;;4993119;28;20431;-76
2023/02/01 12:46:53;;;;;;;5.70;3.72;;;;;;;;;;4984264;28;20467;-76
2023/02/01 12:49:42;;;;;;;7.00;3.50;;;;;;;;;;4988294;28;20199;-77
2023/02/01 12:52:13;;;;;;;10.03;3.80;;;;;;;;;;4996007;28;20494;-77
2023/02/01 12:54:44;;;;;;;7.70;3.70;;;;;;;;;;4986514;28;20789;-76
2023/02/01 12:57:13;;;;;;;8.83;3.30;;;;;;;;;;4967776;28;20432;-76
2023/02/01 12:59:51;;;;;;;9.10;3.60;;;;;;;;;;4991417;28;20462;-76
2023/02/01 13:02:20;;;;;;;14.53;4.17;;;;;;;;;;4978250;28;20472;-76
2023/02/01 13:05:15;;;;;;;14.17;2.83;;;;;;;;;;4982911;28;21128;-76
2023/02/01 13:07:44;;;;;;;6.23;2.97;;;;;;;;;;4976809;28;20432;-76
2023/02/01 13:10:19;;;;;;;14.47;4.07;;;;;;;;;;4973697;28;20463;-76
2023/02/01 13:12:57;;;;;;;9.23;4.40;;;;;;;;;;4987072;28;20431;-76
2023/02/01 13:15:32;;;;;;;2.77;2.63;;;;;;;;;;4987765;28;20479;-77
2023/02/01 13:18:00;;;;;;;19.07;4.93;;;;;;;;;;4979877;28;20536;-77
2023/02/01 13:20:38;;;;;;;8.15;3.40;;;;;;;;;;4980218;28;20543;-76
2023/02/01 13:23:06;;;;;;;9.53;3.73;;;;;;;;;;4980232;28;20189;-77
2023/02/01 13:25:36;;;;;;;15.20;3.60;;;;;;;;;;4970683;28;21129;-76
2023/02/01 13:28:07;;;;;;;6.17;3.80;;;;;;;;;;4963805;28;20545;-76
2023/02/01 13:30:42;;;;;;;11.47;3.47;;;;;;;;;;4988183;28;20472;-77
2023/02/01 13:33:11;;;;;;;11.40;4.03;;;;;;;;;;4984952;28;20958;-76
2023/02/01 13:35:40;;;;;;;9.30;3.03;;;;;;;;;;4974503;28;20490;-75
2023/02/01 13:38:06;;;;;;;9.63;3.50;;;;;;;;;;4994755;28;20459;-76
2023/02/01 13:40:37;;;;;;;5.30;3.10;;;;;;;;;;4981999;28;20522;-76
2023/02/01 13:43:07;;;;;;;7.70;4.40;;;;;;;;;;4970307;28;20424;-76
2023/02/01 13:45:35;;;;;;;5.53;2.55;;;;;;;;;;5002736;28;20538;-77
2023/02/01 13:48:04;;;;;;;15.30;4.93;;;;;;;;;;4990839;28;20728;-76
2023/02/01 13:50:51;;;;;;;9.27;2.87;;;;;;;;;;4981433;28;20465;-76
2023/02/01 13:53:20;;;;;;;5.80;3.20;;;;;;;;;;4975301;28;20433;-76
2023/02/01 13:55:47;;;;;;;7.07;2.70;;;;;;;;;;4976065;28;20979;-77
2023/02/01 13:58:16;;;;;;;9.50;3.80;;;;;;;;;;4969570;28;20524;-77
2023/02/01 14:00:44;;;;;;;7.63;3.30;;;;;;;;;;5002093;28;20447;-76
2023/02/01 14:03:11;;;;;;;6.93;2.93;;;;;;;;;;4989658;28;20531;-77
2023/02/01 14:05:37;;;;;;;7.57;3.03;;;;;;;;;;5000856;28;20434;-78
2023/02/01 14:08:03;;;;;;;7.80;3.23;;;;;;;;;;4992841;28;20424;-76
2023/02/01 14:10:47;;;;;;;8.83;3.13;;;;;;;;;;4981093;28;20472;-77
2023/02/01 14:13:23;;;;;;;8.47;3.27;;;;;;;;;;4978362;28;20424;-76
2023/02/01 14:16:04;;;;;;;13.20;2.90;;;;;;;;;;4986347;28;21025;-76
2023/02/01 14:18:36;;;;;;;14.57;2.83;;;;;;;;;;4978649;28;20809;-76
2023/02/01 14:21:18;;;;;;;10.70;4.00;;;;;;;;;;4983221;28;20404;-76
2023/02/01 14:23:58;;;;;;;6.00;2.47;;;;;;;;;;4979199;28;20451;-75
2023/02/01 14:26:27;;;;;;;7.47;2.92;;;;;;;;;;4968231;28;20432;-76
2023/02/01 14:28:55;;;;;;;9.60;3.73;;;;;;;;;;4971616;28;20552;-76
2023/02/01 14:31:32;;;;;;;9.37;4.03;;;;;;;;;;4974907;28;20974;-76
2023/02/01 14:33:59;;;;;;;6.90;3.10;;;;;;;;;;4968815;28;21090;-74
2023/02/01 14:36:25;;;;;;;3.90;1.80;;;;;;;;;;4974727;28;20421;-76
2023/02/01 14:38:52;;;;;;;4.93;2.60;;;;;;;;;;4992395;28;20463;-77
2023/02/01 14:41:27;;;;;;;9.47;3.57;;;;;;;;;;4986332;28;20515;-75
2023/02/01 14:43:59;;;;;;;17.23;12.63;;;;;;;;;;4984489;28;20435;-77
2023/02/01 14:46:43;;;;;;;6.03;2.87;;;;;;;;;;4963693;28;20794;-75
2023/02/01 14:49:10;;;;;;;6.73;2.60;;;;;;;;;;4983522;28;20935;-76
2023/02/01 14:51:37;;;;;;;7.80;2.83;;;;;;;;;;4981753;28;20682;-75
2023/02/01 14:54:03;;;;;;;11.00;2.50;;;;;;;;;;4984571;28;20575;-75
2023/02/01 14:56:29;;;;;;;9.50;3.10;;;;;;;;;;4986987;28;20436;-74
2023/02/01 14:59:04;;;;;;;8.57;5.43;;;;;;;;;;4962115;28;20446;-76
2023/02/01 15:01:34;;;;;;;14.03;3.43;;;;;;;;;;4975341;28;20433;-76
2023/02/01 15:04:18;;;;;;;18.00;4.60;;;;;;;;;;4981943;28;20451;-75
2023/02/01 15:06:57;;;;;;;10.73;3.33;;;;;;;;;;4963471;28;20433;-76
2023/02/01 15:09:37;;;;;;;9.30;3.27;;;;;;;;;;4985872;28;20833;-75
2023/02/01 15:12:03;;;;;;;7.40;2.10;;;;;;;;;;4982663;28;20760;-75
2023/02/01 15:14:30;;;;;;;5.13;2.90;;;;;;;;;;4978812;28;20448;-75
2023/02/01 15:16:56;;;;;;;8.10;3.47;;;;;;;;;;4984615;28;20432;-75
2023/02/01 15:19:24;;;;;;;9.67;2.80;;;;;;;;;;4995655;28;20610;-75
2023/02/01 15:21:51;;;;;;;11.10;2.27;;;;;;;;;;4988468;28;20420;-76